Flight Track Log - Related Links

Times and Time Zones

All times are in EDT time to prevent confusion due to time zone crossing. See the ASQ5717 flight status page for this flight to view local times or setup timezone preferences in your user account.

Time Position Orientation Groundspeed Altitude Reporting Facility
EDT Latitude Longitude Course Direction KTS MPH feet Rate Location/Type
Fri 03:31:50 PM 44.4322 -73.1319 195° South 161 185 3,100  Level Boston Center
Fri 03:32:49 PM 44.3842 -73.1458 192° South 155 178 6,200 2,319 Climbing Boston Center
Fri 03:33:49 PM 44.3361 -73.1658 197° South 168 193 7,700 1,488 Climbing Boston Center
Fri 03:34:00 PM 44.1306 -73.2761 195° South  Level FlightAware Approximate
Fri 03:34:50 PM 44.2756 -73.1911 197° South 209 241 9,200  Level Boston Center
Fri 03:35:00 PM 44.0463 -73.3068 194° South  Level FlightAware Approximate
Fri 03:35:50 PM 44.2150 -73.2164 197° South 247 284 11,000  Level Boston Center
Fri 03:36:00 PM 43.9617 -73.3350 193° South  Level FlightAware Approximate
Fri 03:36:51 PM 44.1378 -73.2472 196° South 273 314 12,100  Level Boston Center
Fri 03:37:00 PM 43.8773 -73.3648 195° South  Level FlightAware Approximate
Fri 03:37:49 PM 44.0725 -73.3186 218° Southwest 292 336 13,200  Level Boston Center
Fri 03:38:50 PM 44.0094 -73.3983 222° Southwest 310 357 14,400 1,190 Climbing Boston Center
Fri 03:39:50 PM 43.9461 -73.4839 224° Southwest 315 362 15,600 1,200 Climbing Boston Center
Fri 03:40:50 PM 43.8767 -73.5489 214° Southwest 315 362 16,800 1,339 Climbing Boston Center
Fri 03:41:51 PM 43.7869 -73.5703 190° South 310 357 18,300 1,412 Climbing Boston Center
Fri 03:42:49 PM 43.6908 -73.5944 190° South 321 369 19,600 1,008 Climbing Boston Center
Fri 03:43:50 PM 43.6114 -73.6100 188° South 321 369 20,300 645 Climbing Boston Center
Fri 03:44:50 PM 43.5175 -73.6311 189° South 332 382 20,900 694 Climbing Boston Center
Fri 03:45:51 PM 43.4236 -73.6492 188° South 338 389 21,700 706 Climbing Boston Center
Fri 03:46:49 PM 43.3275 -73.6758 191° South 350 403 22,300 655 Climbing Boston Center
Fri 03:47:50 PM 43.2314 -73.6967 189° South 355 409 23,000 744 Climbing Boston Center
Fri 03:48:50 PM 43.1225 -73.7231 190° South 355 409 23,800 744 Climbing Boston Center
Fri 03:49:51 PM 43.0244 -73.7436 189° South 355 409 24,500 645 Climbing Boston Center
Fri 03:50:51 PM 42.9303 -73.7644 189° South 355 409 25,100 550 Climbing Boston Center
Fri 03:51:51 PM 42.8300 -73.7878 190° South 355 409 25,600 508 Climbing Boston Center
Fri 03:52:49 PM 42.7319 -73.8139 191° South 360 414 26,100 500 Climbing Boston Center
Fri 03:53:51 PM 42.6375 -73.8569 199° South 360 414 26,600 500 Climbing Boston Center
Fri 03:54:49 PM 42.5578 -73.8917 198° South 354 407 27,100 458 Climbing Boston Center
Fri 03:56:02 PM 42.4636 -73.9344 199° South 354 407 27,600 493 Climbing Boston Center
Fri 03:57:03 PM 42.3503 -73.9881 199° South 354 407 28,200 496 Climbing Boston Center
Fri 03:58:15 PM 42.2539 -74.0278 197° South 360 414 28,700 508 Climbing Boston Center
Fri 03:59:13 PM 42.1367 -74.0639 193° South 360 414 29,300 559 Climbing Boston Center
Fri 04:00:13 PM 42.0422 -74.1033 197° South 360 414 29,800 271 Climbing Boston Center
Fri 04:01:48 PM 41.8936 -74.1650 197° South 373 429 30,000 78 Climbing New York Center
Fri 04:02:46 PM 41.7944 -74.2097 199° South 373 429 30,000  Level New York Center
Fri 04:03:47 PM 41.6933 -74.2519 197° South 373 429 30,000  Level New York Center
Fri 04:04:48 PM 41.5900 -74.2964 198° South 383 441 30,000  Level New York Center
Fri 04:05:47 PM 41.4844 -74.3433 198° South 383 441 30,000 -250 Level New York Center
Fri 04:06:48 PM 41.3964 -74.4300 216° Southwest 383 441 29,500 -605 Descending New York Center
Fri 04:07:46 PM 41.2992 -74.4825 202° Southwest 400 460 28,800 -661 Descending New York Center
Fri 04:08:46 PM 41.1856 -74.5122 191° South 414 476 28,200 -645 Descending New York Center
Fri 04:09:47 PM 41.0700 -74.5442 192° South 420 483 27,500 -689 Descending New York Center
Fri 04:10:48 PM 40.9564 -74.5792 193° South 420 483 26,800 -706 Descending New York Center
Fri 04:11:46 PM 40.8742 -74.6761 222° Southwest 400 460 26,100 -403 Descending New York Center
Fri 04:12:47 PM 40.8236 -74.8131 244° Southwest 403 464 26,000 -50 Descending New York Center
Fri 04:13:47 PM 40.7650 -74.9411 239° Southwest 410 472 26,000  Level New York Center
Fri 04:14:48 PM 40.7042 -75.0717 238° Southwest 415 478 26,000  Level New York Center
Fri 04:15:48 PM 40.6475 -75.1939 239° Southwest 410 472 26,000 -50 Level New York Center
Fri 04:16:49 PM 40.5886 -75.3183 238° Southwest 405 466 25,900 -51 Descending New York Center
Fri 04:17:46 PM 40.5250 -75.4536 238° Southwest 405 466 25,900 -712 Level New York Center
Fri 04:18:47 PM 40.4658 -75.5778 238° Southwest 405 466 24,500 -1,587 Descending New York Center
Fri 04:19:47 PM 40.4064 -75.7017 238° Southwest 405 466 22,700 -1,736 Descending New York Center
Fri 04:20:48 PM 40.3517 -75.8175 238° Southwest 399 459 21,000 -1,361 Descending New York Center
Fri 04:21:46 PM 40.2969 -75.9225 236° Southwest 393 452 20,000 -504 Descending New York Center
Fri 04:22:47 PM 40.2419 -76.0381 238° Southwest 393 452 20,000 -50 Level New York Center
Fri 04:23:47 PM 40.1867 -76.1533 238° Southwest 383 441 19,900 -492 Descending New York Center
Fri 04:24:49 PM 40.1267 -76.2792 238° Southwest 376 433 19,000 -871 Descending New York Center
Fri 04:26:00 PM 40.0603 -76.4026 246° West  Level FlightAware Approximate
Fri 04:33:00 PM 39.7009 -77.1787 239° Southwest  Level FlightAware Approximate
Fri 04:34:00 PM 39.6438 -77.2843 229° Southwest  Level FlightAware Approximate
Fri 04:35:00 PM 39.5635 -77.3333 180° South  Level FlightAware Approximate
Fri 04:36:00 PM 39.4642 -77.3429 185° South  Level FlightAware Approximate
Fri 04:37:00 PM 39.3592 -77.3500 180° South  Level FlightAware Approximate
Fri 04:38:00 PM 39.2540 -77.3500 180° South  Level FlightAware Approximate
Fri 04:39:00 PM 39.1488 -77.3500 180° South  Level FlightAware Approximate
Fri 04:40:00 PM 39.0435 -77.3500 180° South  Level FlightAware Approximate
Fri 04:41:00 PM 38.9383 -77.3500 180° South  Level FlightAware Approximate
Fri 04:42:00 PM 38.9474 -77.4599 180° South  Level Estimated
Fri 04:43:00 PM 38.9474 -77.4599 180° South  Level Estimated
Fri 04:44:00 PM 38.9474 -77.4599 345° North  Level Estimated
Fri 04:45:00 PM 38.9474 -77.4599 339° North  Level Estimated
Fri 04:46:00 PM 38.9474 -77.4599 349° North  Level Estimated
Fri 04:47:00 PM 38.9474 -77.4599 349° North  Level Estimated
Fri 04:48:00 PM 38.9474 -77.4599 349° North  Level Estimated
Fri 04:49:00 PM 38.9474 -77.4599 349° North  Level Estimated
Fri 04:50:00 PM 38.9474 -77.4599 349° North  Level Estimated
Fri 04:51:00 PM 38.9474 -77.4599 349° North  Level Estimated
Fri 04:52:00 PM 38.9474 -77.4599 349° North  Level Estimated
Fri 04:53:00 PM 38.9474 -77.4599 349° North  Level Estimated
Fri 04:54:00 PM 38.9474 -77.4599 349° North  Level Estimated
Fri 04:55:00 PM 38.9474 -77.4599 349° North  Level Estimated
Fri 04:56:00 PM 38.9474 -77.4599 349° North  Level Estimated
Fri 04:57:00 PM 38.9474 -77.4599 349° North  Level Estimated
Fri 04:58:00 PM 38.9474 -77.4599 349° North  Level Estimated
Fri 04:59:00 PM 38.9474 -77.4599 349° North  Level Estimated
Fri 05:00:00 PM 38.9474 -77.4599 349° North  Level Estimated
Fri 05:01:00 PM 38.9474 -77.4599 349° North  Level Estimated
Fri 05:02:00 PM 38.9474 -77.4599 349° North  Level Estimated
Fri 05:03:00 PM 38.9474 -77.4599 349° North  Level Estimated

Login

Don't have an account? Register now (free) for customized features, flight alerts, and more!